sensor_id;sensor_type;location;lat;lon;timestamp;P1;durP1;ratioP1;P2;durP2;ratioP2
59922;SDS011;45778;51.142;3.732;2023-02-02T00:01:24;18.52;;;4.30;;
59922;SDS011;45778;51.142;3.732;2023-02-02T00:03:51;18.48;;;2.78;;
59922;SDS011;45778;51.142;3.732;2023-02-02T00:06:20;22.50;;;3.08;;
59922;SDS011;45778;51.142;3.732;2023-02-02T00:08:47;12.65;;;2.60;;
59922;SDS011;45778;51.142;3.732;2023-02-02T00:11:13;17.33;;;2.78;;
59922;SDS011;45778;51.142;3.732;2023-02-02T00:13:40;17.00;;;3.42;;
59922;SDS011;45778;51.142;3.732;2023-02-02T00:18:50;13.93;;;2.83;;
59922;SDS011;45778;51.142;3.732;2023-02-02T00:21:16;16.88;;;3.47;;
59922;SDS011;45778;51.142;3.732;2023-02-02T00:23:41;18.70;;;3.72;;
59922;SDS011;45778;51.142;3.732;2023-02-02T00:26:07;13.15;;;3.28;;
59922;SDS011;45778;51.142;3.732;2023-02-02T00:28:33;18.58;;;3.67;;
59922;SDS011;45778;51.142;3.732;2023-02-02T00:30:59;16.35;;;2.80;;
59922;SDS011;45778;51.142;3.732;2023-02-02T00:33:25;19.25;;;3.53;;
59922;SDS011;45778;51.142;3.732;2023-02-02T00:35:51;19.15;;;3.60;;
59922;SDS011;45778;51.142;3.732;2023-02-02T00:38:17;14.75;;;2.78;;
59922;SDS011;45778;51.142;3.732;2023-02-02T00:40:42;11.93;;;2.88;;
59922;SDS011;45778;51.142;3.732;2023-02-02T00:43:08;20.17;;;3.17;;
59922;SDS011;45778;51.142;3.732;2023-02-02T00:45:35;16.70;;;3.03;;
59922;SDS011;45778;51.142;3.732;2023-02-02T00:48:03;17.08;;;2.63;;
59922;SDS011;45778;51.142;3.732;2023-02-02T00:50:30;17.33;;;3.38;;
59922;SDS011;45778;51.142;3.732;2023-02-02T00:52:56;18.05;;;3.15;;
59922;SDS011;45778;51.142;3.732;2023-02-02T00:55:23;17.23;;;3.10;;
59922;SDS011;45778;51.142;3.732;2023-02-02T00:57:50;18.02;;;2.85;;
59922;SDS011;45778;51.142;3.732;2023-02-02T01:00:17;11.90;;;2.80;;
59922;SDS011;45778;51.142;3.732;2023-02-02T01:02:47;10.43;;;2.47;;
59922;SDS011;45778;51.142;3.732;2023-02-02T01:05:17;18.45;;;3.40;;
59922;SDS011;45778;51.142;3.732;2023-02-02T01:07:44;17.55;;;3.42;;
59922;SDS011;45778;51.142;3.732;2023-02-02T01:10:12;20.30;;;3.65;;
59922;SDS011;45778;51.142;3.732;2023-02-02T01:12:40;17.17;;;2.40;;
59922;SDS011;45778;51.142;3.732;2023-02-02T01:15:07;13.48;;;2.53;;
59922;SDS011;45778;51.142;3.732;2023-02-02T01:17:33;18.33;;;2.75;;
59922;SDS011;45778;51.142;3.732;2023-02-02T01:19:59;18.65;;;3.35;;
59922;SDS011;45778;51.142;3.732;2023-02-02T01:22:25;13.68;;;3.28;;
59922;SDS011;45778;51.142;3.732;2023-02-02T01:24:51;15.07;;;2.72;;
59922;SDS011;45778;51.142;3.732;2023-02-02T01:27:17;14.32;;;2.40;;
59922;SDS011;45778;51.142;3.732;2023-02-02T01:29:42;24.33;;;3.55;;
59922;SDS011;45778;51.142;3.732;2023-02-02T01:32:08;16.88;;;2.85;;
59922;SDS011;45778;51.142;3.732;2023-02-02T01:34:34;15.32;;;3.25;;
59922;SDS011;45778;51.142;3.732;2023-02-02T01:37:00;17.90;;;2.78;;
59922;SDS011;45778;51.142;3.732;2023-02-02T01:39:26;18.77;;;3.00;;
59922;SDS011;45778;51.142;3.732;2023-02-02T01:41:51;13.10;;;2.85;;
59922;SDS011;45778;51.142;3.732;2023-02-02T01:47:27;15.70;;;3.10;;
59922;SDS011;45778;51.142;3.732;2023-02-02T01:49:56;13.32;;;2.38;;
59922;SDS011;45778;51.142;3.732;2023-02-02T01:52:23;11.88;;;2.35;;
59922;SDS011;45778;51.142;3.732;2023-02-02T01:54:52;19.90;;;4.10;;
59922;SDS011;45778;51.142;3.732;2023-02-02T01:57:32;18.92;;;2.60;;
59922;SDS011;45778;51.142;3.732;2023-02-02T02:00:04;16.48;;;2.47;;
59922;SDS011;45778;51.142;3.732;2023-02-02T02:02:32;11.27;;;2.38;;
59922;SDS011;45778;51.142;3.732;2023-02-02T02:04:58;16.02;;;3.08;;
59922;SDS011;45778;51.142;3.732;2023-02-02T02:07:26;19.33;;;3.20;;
59922;SDS011;45778;51.142;3.732;2023-02-02T02:09:53;13.70;;;2.80;;
59922;SDS011;45778;51.142;3.732;2023-02-02T02:12:19;11.32;;;2.45;;
59922;SDS011;45778;51.142;3.732;2023-02-02T02:14:45;11.10;;;2.50;;
59922;SDS011;45778;51.142;3.732;2023-02-02T02:24:28;13.30;;;2.08;;
59922;SDS011;45778;51.142;3.732;2023-02-02T02:27:22;18.23;;;3.20;;
59922;SDS011;45778;51.142;3.732;2023-02-02T02:33:00;14.98;;;2.75;;
59922;SDS011;45778;51.142;3.732;2023-02-02T02:35:31;18.48;;;2.85;;
59922;SDS011;45778;51.142;3.732;2023-02-02T02:38:24;16.67;;;2.70;;
59922;SDS011;45778;51.142;3.732;2023-02-02T02:41:04;20.35;;;2.92;;
59922;SDS011;45778;51.142;3.732;2023-02-02T02:43:38;17.98;;;3.03;;
59922;SDS011;45778;51.142;3.732;2023-02-02T02:46:07;15.75;;;2.83;;
59922;SDS011;45778;51.142;3.732;2023-02-02T02:48:34;14.52;;;2.70;;
59922;SDS011;45778;51.142;3.732;2023-02-02T02:54:17;11.95;;;1.98;;
59922;SDS011;45778;51.142;3.732;2023-02-02T03:10:53;21.58;;;3.00;;
59922;SDS011;45778;51.142;3.732;2023-02-02T03:13:21;15.23;;;2.17;;
59922;SDS011;45778;51.142;3.732;2023-02-02T03:15:47;12.52;;;3.42;;
59922;SDS011;45778;51.142;3.732;2023-02-02T03:18:14;15.85;;;2.47;;
59922;SDS011;45778;51.142;3.732;2023-02-02T03:20:45;14.27;;;2.47;;
59922;SDS011;45778;51.142;3.732;2023-02-02T03:23:12;20.73;;;3.40;;
59922;SDS011;45778;51.142;3.732;2023-02-02T03:25:38;15.75;;;2.45;;
59922;SDS011;45778;51.142;3.732;2023-02-02T03:28:04;14.55;;;2.25;;
59922;SDS011;45778;51.142;3.732;2023-02-02T03:30:30;15.38;;;2.92;;
59922;SDS011;45778;51.142;3.732;2023-02-02T03:32:57;11.93;;;2.97;;
59922;SDS011;45778;51.142;3.732;2023-02-02T03:35:23;18.77;;;3.03;;
59922;SDS011;45778;51.142;3.732;2023-02-02T03:37:50;14.90;;;2.45;;
59922;SDS011;45778;51.142;3.732;2023-02-02T03:40:16;14.88;;;2.70;;
59922;SDS011;45778;51.142;3.732;2023-02-02T03:42:42;13.65;;;3.20;;
59922;SDS011;45778;51.142;3.732;2023-02-02T03:45:08;15.05;;;2.10;;
59922;SDS011;45778;51.142;3.732;2023-02-02T03:47:34;13.18;;;2.25;;
59922;SDS011;45778;51.142;3.732;2023-02-02T03:50:00;9.63;;;2.83;;
59922;SDS011;45778;51.142;3.732;2023-02-02T03:52:26;12.82;;;2.53;;
59922;SDS011;45778;51.142;3.732;2023-02-02T03:54:52;16.95;;;3.50;;
59922;SDS011;45778;51.142;3.732;2023-02-02T03:57:18;12.65;;;2.63;;
59922;SDS011;45778;51.142;3.732;2023-02-02T03:59:43;11.43;;;2.53;;
59922;SDS011;45778;51.142;3.732;2023-02-02T04:02:09;18.40;;;3.55;;
59922;SDS011;45778;51.142;3.732;2023-02-02T04:04:35;18.35;;;4.82;;
59922;SDS011;45778;51.142;3.732;2023-02-02T04:07:00;13.80;;;2.63;;
59922;SDS011;45778;51.142;3.732;2023-02-02T04:09:26;15.73;;;3.28;;
59922;SDS011;45778;51.142;3.732;2023-02-02T04:11:52;13.85;;;3.20;;
59922;SDS011;45778;51.142;3.732;2023-02-02T04:14:18;14.73;;;3.17;;
59922;SDS011;45778;51.142;3.732;2023-02-02T04:16:44;11.55;;;3.63;;
59922;SDS011;45778;51.142;3.732;2023-02-02T04:19:10;21.40;;;4.45;;
59922;SDS011;45778;51.142;3.732;2023-02-02T04:21:39;12.77;;;2.38;;
59922;SDS011;45778;51.142;3.732;2023-02-02T04:24:05;21.48;;;4.05;;
59922;SDS011;45778;51.142;3.732;2023-02-02T04:26:34;14.27;;;2.60;;
59922;SDS011;45778;51.142;3.732;2023-02-02T04:29:00;13.55;;;3.05;;
59922;SDS011;45778;51.142;3.732;2023-02-02T04:31:26;15.02;;;2.92;;
59922;SDS011;45778;51.142;3.732;2023-02-02T04:33:53;10.80;;;3.42;;
59922;SDS011;45778;51.142;3.732;2023-02-02T04:36:22;14.55;;;2.47;;
59922;SDS011;45778;51.142;3.732;2023-02-02T04:38:49;14.35;;;2.88;;
59922;SDS011;45778;51.142;3.732;2023-02-02T04:41:16;15.40;;;2.80;;
59922;SDS011;45778;51.142;3.732;2023-02-02T04:43:43;11.93;;;2.53;;
59922;SDS011;45778;51.142;3.732;2023-02-02T04:46:09;12.85;;;2.83;;
59922;SDS011;45778;51.142;3.732;2023-02-02T04:48:35;16.38;;;2.70;;
59922;SDS011;45778;51.142;3.732;2023-02-02T04:51:02;17.08;;;3.08;;
59922;SDS011;45778;51.142;3.732;2023-02-02T04:53:30;16.02;;;4.15;;
59922;SDS011;45778;51.142;3.732;2023-02-02T04:55:56;17.80;;;3.25;;
59922;SDS011;45778;51.142;3.732;2023-02-02T04:58:28;7.35;;;2.47;;
59922;SDS011;45778;51.142;3.732;2023-02-02T05:00:54;19.60;;;3.72;;
59922;SDS011;45778;51.142;3.732;2023-02-02T05:03:19;23.60;;;4.03;;
59922;SDS011;45778;51.142;3.732;2023-02-02T05:05:45;20.65;;;3.40;;
59922;SDS011;45778;51.142;3.732;2023-02-02T05:08:11;12.82;;;2.55;;
59922;SDS011;45778;51.142;3.732;2023-02-02T05:10:40;10.57;;;2.55;;
59922;SDS011;45778;51.142;3.732;2023-02-02T05:13:06;14.10;;;2.55;;
59922;SDS011;45778;51.142;3.732;2023-02-02T05:15:33;20.17;;;2.47;;
59922;SDS011;45778;51.142;3.732;2023-02-02T05:17:59;16.45;;;2.55;;
59922;SDS011;45778;51.142;3.732;2023-02-02T05:20:24;14.60;;;2.90;;
59922;SDS011;45778;51.142;3.732;2023-02-02T05:22:50;13.55;;;2.22;;
59922;SDS011;45778;51.142;3.732;2023-02-02T05:25:16;12.63;;;3.28;;
59922;SDS011;45778;51.142;3.732;2023-02-02T05:27:42;16.80;;;2.35;;
59922;SDS011;45778;51.142;3.732;2023-02-02T05:30:10;14.23;;;2.70;;
59922;SDS011;45778;51.142;3.732;2023-02-02T05:32:37;14.57;;;2.50;;
59922;SDS011;45778;51.142;3.732;2023-02-02T05:35:03;10.07;;;2.05;;
59922;SDS011;45778;51.142;3.732;2023-02-02T05:37:29;12.65;;;2.50;;
59922;SDS011;45778;51.142;3.732;2023-02-02T05:39:54;12.75;;;3.28;;
59922;SDS011;45778;51.142;3.732;2023-02-02T05:42:20;14.27;;;2.95;;
59922;SDS011;45778;51.142;3.732;2023-02-02T05:44:46;17.58;;;2.60;;
59922;SDS011;45778;51.142;3.732;2023-02-02T05:47:12;13.50;;;2.22;;
59922;SDS011;45778;51.142;3.732;2023-02-02T05:49:37;13.02;;;2.30;;
59922;SDS011;45778;51.142;3.732;2023-02-02T05:52:03;17.05;;;2.20;;
59922;SDS011;45778;51.142;3.732;2023-02-02T05:54:29;14.18;;;2.53;;
59922;SDS011;45778;51.142;3.732;2023-02-02T05:56:55;17.67;;;3.45;;
59922;SDS011;45778;51.142;3.732;2023-02-02T05:59:21;16.48;;;2.85;;
59922;SDS011;45778;51.142;3.732;2023-02-02T06:01:48;10.30;;;2.10;;
59922;SDS011;45778;51.142;3.732;2023-02-02T06:04:14;14.60;;;2.70;;
59922;SDS011;45778;51.142;3.732;2023-02-02T06:06:40;12.43;;;2.13;;
59922;SDS011;45778;51.142;3.732;2023-02-02T06:09:06;12.52;;;2.95;;
59922;SDS011;45778;51.142;3.732;2023-02-02T06:11:33;12.55;;;2.90;;
59922;SDS011;45778;51.142;3.732;2023-02-02T06:13:58;14.27;;;2.55;;
59922;SDS011;45778;51.142;3.732;2023-02-02T06:16:25;15.68;;;2.38;;
59922;SDS011;45778;51.142;3.732;2023-02-02T06:18:50;12.88;;;1.95;;
59922;SDS011;45778;51.142;3.732;2023-02-02T06:21:16;10.95;;;2.38;;
59922;SDS011;45778;51.142;3.732;2023-02-02T06:23:43;9.35;;;2.65;;
59922;SDS011;45778;51.142;3.732;2023-02-02T06:26:12;14.63;;;3.28;;
59922;SDS011;45778;51.142;3.732;2023-02-02T06:28:39;17.88;;;2.70;;
59922;SDS011;45778;51.142;3.732;2023-02-02T06:31:09;10.45;;;2.08;;
59922;SDS011;45778;51.142;3.732;2023-02-02T06:33:36;15.02;;;2.72;;
59922;SDS011;45778;51.142;3.732;2023-02-02T06:36:02;14.77;;;2.33;;
59922;SDS011;45778;51.142;3.732;2023-02-02T06:38:31;14.30;;;2.67;;
59922;SDS011;45778;51.142;3.732;2023-02-02T06:41:00;17.92;;;2.10;;
59922;SDS011;45778;51.142;3.732;2023-02-02T06:43:27;17.77;;;2.70;;
59922;SDS011;45778;51.142;3.732;2023-02-02T06:45:53;9.30;;;2.13;;
59922;SDS011;45778;51.142;3.732;2023-02-02T06:48:21;15.00;;;2.20;;
59922;SDS011;45778;51.142;3.732;2023-02-02T06:50:46;17.90;;;3.45;;
59922;SDS011;45778;51.142;3.732;2023-02-02T06:53:12;12.50;;;2.78;;
59922;SDS011;45778;51.142;3.732;2023-02-02T06:55:38;15.60;;;2.22;;
59922;SDS011;45778;51.142;3.732;2023-02-02T06:58:03;12.50;;;2.20;;
59922;SDS011;45778;51.142;3.732;2023-02-02T07:00:29;11.25;;;2.15;;
59922;SDS011;45778;51.142;3.732;2023-02-02T07:02:55;15.55;;;2.47;;
59922;SDS011;45778;51.142;3.732;2023-02-02T07:05:21;7.38;;;1.90;;
59922;SDS011;45778;51.142;3.732;2023-02-02T07:07:48;13.77;;;2.15;;
59922;SDS011;45778;51.142;3.732;2023-02-02T07:10:15;16.05;;;2.35;;
59922;SDS011;45778;51.142;3.732;2023-02-02T07:12:41;10.98;;;2.13;;
59922;SDS011;45778;51.142;3.732;2023-02-02T07:15:07;8.80;;;2.22;;
59922;SDS011;45778;51.142;3.732;2023-02-02T07:17:33;12.70;;;1.77;;
59922;SDS011;45778;51.142;3.732;2023-02-02T07:19:58;10.35;;;2.88;;
59922;SDS011;45778;51.142;3.732;2023-02-02T07:22:24;9.57;;;2.13;;
59922;SDS011;45778;51.142;3.732;2023-02-02T07:24:50;12.43;;;2.17;;
59922;SDS011;45778;51.142;3.732;2023-02-02T07:27:15;12.13;;;1.98;;
59922;SDS011;45778;51.142;3.732;2023-02-02T07:29:41;12.98;;;2.65;;
59922;SDS011;45778;51.142;3.732;2023-02-02T07:32:07;9.10;;;1.90;;
59922;SDS011;45778;51.142;3.732;2023-02-02T07:34:35;10.38;;;1.95;;
59922;SDS011;45778;51.142;3.732;2023-02-02T07:37:06;17.92;;;3.53;;
59922;SDS011;45778;51.142;3.732;2023-02-02T07:39:33;10.77;;;2.28;;
59922;SDS011;45778;51.142;3.732;2023-02-02T07:41:58;11.98;;;2.20;;
59922;SDS011;45778;51.142;3.732;2023-02-02T07:44:25;15.80;;;2.50;;
59922;SDS011;45778;51.142;3.732;2023-02-02T07:46:51;13.80;;;1.90;;
59922;SDS011;45778;51.142;3.732;2023-02-02T07:49:17;10.82;;;2.20;;
59922;SDS011;45778;51.142;3.732;2023-02-02T07:51:43;10.50;;;2.20;;
59922;SDS011;45778;51.142;3.732;2023-02-02T07:54:11;10.27;;;2.03;;
59922;SDS011;45778;51.142;3.732;2023-02-02T07:56:37;16.60;;;2.25;;
59922;SDS011;45778;51.142;3.732;2023-02-02T07:59:03;13.63;;;2.70;;
59922;SDS011;45778;51.142;3.732;2023-02-02T08:01:29;11.95;;;2.30;;
59922;SDS011;45778;51.142;3.732;2023-02-02T08:03:57;12.88;;;2.25;;
59922;SDS011;45778;51.142;3.732;2023-02-02T08:06:34;9.38;;;2.15;;
59922;SDS011;45778;51.142;3.732;2023-02-02T08:09:02;12.95;;;2.47;;
59922;SDS011;45778;51.142;3.732;2023-02-02T08:11:29;14.20;;;2.70;;
59922;SDS011;45778;51.142;3.732;2023-02-02T08:13:56;12.95;;;2.78;;
59922;SDS011;45778;51.142;3.732;2023-02-02T08:16:24;11.30;;;2.08;;
59922;SDS011;45778;51.142;3.732;2023-02-02T08:18:51;18.25;;;3.25;;
59922;SDS011;45778;51.142;3.732;2023-02-02T08:21:17;11.93;;;2.75;;
59922;SDS011;45778;51.142;3.732;2023-02-02T08:23:44;11.68;;;3.10;;
59922;SDS011;45778;51.142;3.732;2023-02-02T08:28:45;20.63;;;3.15;;
59922;SDS011;45778;51.142;3.732;2023-02-02T08:31:20;11.65;;;2.50;;
59922;SDS011;45778;51.142;3.732;2023-02-02T08:33:48;12.32;;;2.20;;
59922;SDS011;45778;51.142;3.732;2023-02-02T08:36:16;7.88;;;2.08;;
59922;SDS011;45778;51.142;3.732;2023-02-02T08:38:43;10.90;;;1.85;;
59922;SDS011;45778;51.142;3.732;2023-02-02T08:41:10;10.48;;;2.10;;
59922;SDS011;45778;51.142;3.732;2023-02-02T08:43:38;10.95;;;2.53;;
59922;SDS011;45778;51.142;3.732;2023-02-02T08:46:05;16.73;;;2.75;;
59922;SDS011;45778;51.142;3.732;2023-02-02T08:48:32;10.38;;;3.15;;
59922;SDS011;45778;51.142;3.732;2023-02-02T08:50:59;12.13;;;2.10;;
59922;SDS011;45778;51.142;3.732;2023-02-02T08:53:25;16.73;;;2.95;;
59922;SDS011;45778;51.142;3.732;2023-02-02T08:58:37;17.08;;;3.50;;
59922;SDS011;45778;51.142;3.732;2023-02-02T09:01:07;12.75;;;2.67;;
59922;SDS011;45778;51.142;3.732;2023-02-02T09:03:36;13.30;;;2.45;;
59922;SDS011;45778;51.142;3.732;2023-02-02T09:06:07;8.60;;;2.28;;
59922;SDS011;45778;51.142;3.732;2023-02-02T09:08:35;9.90;;;2.08;;
59922;SDS011;45778;51.142;3.732;2023-02-02T09:11:02;10.32;;;1.98;;
59922;SDS011;45778;51.142;3.732;2023-02-02T09:13:29;14.80;;;2.88;;
59922;SDS011;45778;51.142;3.732;2023-02-02T09:15:57;19.67;;;2.53;;
59922;SDS011;45778;51.142;3.732;2023-02-02T09:18:24;8.95;;;1.73;;
59922;SDS011;45778;51.142;3.732;2023-02-02T09:20:50;12.23;;;1.73;;
59922;SDS011;45778;51.142;3.732;2023-02-02T09:23:16;10.00;;;1.77;;
59922;SDS011;45778;51.142;3.732;2023-02-02T09:25:41;8.68;;;2.53;;
59922;SDS011;45778;51.142;3.732;2023-02-02T09:28:07;6.43;;;1.85;;
59922;SDS011;45778;51.142;3.732;2023-02-02T09:30:33;14.70;;;2.00;;
59922;SDS011;45778;51.142;3.732;2023-02-02T09:32:58;8.18;;;2.22;;
59922;SDS011;45778;51.142;3.732;2023-02-02T09:35:24;12.10;;;2.28;;
59922;SDS011;45778;51.142;3.732;2023-02-02T09:37:50;10.10;;;2.30;;
59922;SDS011;45778;51.142;3.732;2023-02-02T09:40:19;16.85;;;2.38;;
59922;SDS011;45778;51.142;3.732;2023-02-02T09:42:53;12.93;;;2.35;;
59922;SDS011;45778;51.142;3.732;2023-02-02T09:51:08;10.50;;;2.38;;
59922;SDS011;45778;51.142;3.732;2023-02-02T09:53:44;8.65;;;1.80;;
59922;SDS011;45778;51.142;3.732;2023-02-02T09:56:21;10.88;;;2.55;;
59922;SDS011;45778;51.142;3.732;2023-02-02T09:58:54;12.73;;;2.38;;
59922;SDS011;45778;51.142;3.732;2023-02-02T10:01:24;8.60;;;1.63;;
59922;SDS011;45778;51.142;3.732;2023-02-02T10:04:02;9.88;;;2.20;;
59922;SDS011;45778;51.142;3.732;2023-02-02T10:20:42;7.45;;;2.45;;
59922;SDS011;45778;51.142;3.732;2023-02-02T10:25:56;5.40;;;1.60;;
59922;SDS011;45778;51.142;3.732;2023-02-02T10:31:17;10.35;;;1.48;;
59922;SDS011;45778;51.142;3.732;2023-02-02T10:34:00;17.25;;;2.08;;
59922;SDS011;45778;51.142;3.732;2023-02-02T10:36:39;10.13;;;1.88;;
59922;SDS011;45778;51.142;3.732;2023-02-02T10:39:31;9.48;;;1.58;;
59922;SDS011;45778;51.142;3.732;2023-02-02T10:42:14;10.20;;;1.80;;
59922;SDS011;45778;51.142;3.732;2023-02-02T10:45:03;7.20;;;1.75;;
59922;SDS011;45778;51.142;3.732;2023-02-02T10:47:39;8.02;;;1.75;;
59922;SDS011;45778;51.142;3.732;2023-02-02T10:52:36;10.65;;;1.55;;
59922;SDS011;45778;51.142;3.732;2023-02-02T10:58:03;8.90;;;2.30;;
59922;SDS011;45778;51.142;3.732;2023-02-02T11:00:42;7.93;;;2.22;;
59922;SDS011;45778;51.142;3.732;2023-02-02T11:03:15;11.07;;;2.00;;
59922;SDS011;45778;51.142;3.732;2023-02-02T11:05:43;8.48;;;1.45;;
59922;SDS011;45778;51.142;3.732;2023-02-02T11:08:33;7.25;;;1.63;;
59922;SDS011;45778;51.142;3.732;2023-02-02T11:14:00;11.90;;;2.10;;
59922;SDS011;45778;51.142;3.732;2023-02-02T11:16:42;9.15;;;1.65;;
59922;SDS011;45778;51.142;3.732;2023-02-02T11:21:41;11.10;;;2.33;;
59922;SDS011;45778;51.142;3.732;2023-02-02T11:27:11;6.80;;;1.20;;
59922;SDS011;45778;51.142;3.732;2023-02-02T11:29:52;7.78;;;1.48;;
59922;SDS011;45778;51.142;3.732;2023-02-02T11:32:30;8.23;;;1.35;;
59922;SDS011;45778;51.142;3.732;2023-02-02T11:37:34;9.38;;;1.33;;
59922;SDS011;45778;51.142;3.732;2023-02-02T11:43:01;4.75;;;1.25;;
59922;SDS011;45778;51.142;3.732;2023-02-02T11:45:37;8.70;;;1.30;;
59922;SDS011;45778;51.142;3.732;2023-02-02T11:48:18;4.28;;;0.95;;
59922;SDS011;45778;51.142;3.732;2023-02-02T11:50:47;7.53;;;1.55;;
59922;SDS011;45778;51.142;3.732;2023-02-02T11:53:22;7.38;;;1.10;;
59922;SDS011;45778;51.142;3.732;2023-02-02T11:55:51;9.82;;;2.28;;
59922;SDS011;45778;51.142;3.732;2023-02-02T11:58:28;6.68;;;1.27;;
59922;SDS011;45778;51.142;3.732;2023-02-02T12:01:08;5.32;;;0.88;;
59922;SDS011;45778;51.142;3.732;2023-02-02T12:03:47;4.82;;;0.95;;
59922;SDS011;45778;51.142;3.732;2023-02-02T12:06:17;6.93;;;1.60;;
59922;SDS011;45778;51.142;3.732;2023-02-02T12:08:43;3.67;;;0.75;;
59922;SDS011;45778;51.142;3.732;2023-02-02T12:11:09;6.65;;;1.15;;
59922;SDS011;45778;51.142;3.732;2023-02-02T12:16:45;10.43;;;1.10;;
59922;SDS011;45778;51.142;3.732;2023-02-02T12:22:09;3.78;;;1.15;;
59922;SDS011;45778;51.142;3.732;2023-02-02T12:24:56;13.57;;;2.55;;
59922;SDS011;45778;51.142;3.732;2023-02-02T12:27:38;4.85;;;0.88;;
59922;SDS011;45778;51.142;3.732;2023-02-02T12:33:12;6.93;;;1.25;;
59922;SDS011;45778;51.142;3.732;2023-02-02T12:36:14;3.28;;;0.70;;
59922;SDS011;45778;51.142;3.732;2023-02-02T12:47:18;6.53;;;1.05;;
59922;SDS011;45778;51.142;3.732;2023-02-02T12:50:34;8.35;;;1.10;;
59922;SDS011;45778;51.142;3.732;2023-02-02T12:58:49;8.18;;;1.20;;
59922;SDS011;45778;51.142;3.732;2023-02-02T13:04:31;8.88;;;1.08;;
59922;SDS011;45778;51.142;3.732;2023-02-02T13:07:24;4.88;;;1.10;;
59922;SDS011;45778;51.142;3.732;2023-02-02T13:13:26;7.10;;;1.20;;
59922;SDS011;45778;51.142;3.732;2023-02-02T13:16:04;8.77;;;1.25;;
59922;SDS011;45778;51.142;3.732;2023-02-02T13:18:37;5.20;;;1.30;;
59922;SDS011;45778;51.142;3.732;2023-02-02T13:21:12;4.93;;;1.00;;
59922;SDS011;45778;51.142;3.732;2023-02-02T13:24:00;6.35;;;1.00;;
59922;SDS011;45778;51.142;3.732;2023-02-02T13:26:36;5.70;;;1.23;;
59922;SDS011;45778;51.142;3.732;2023-02-02T13:31:45;5.82;;;1.25;;
59922;SDS011;45778;51.142;3.732;2023-02-02T13:48:56;4.10;;;1.50;;
59922;SDS011;45778;51.142;3.732;2023-02-02T13:57:12;5.78;;;1.45;;
59922;SDS011;45778;51.142;3.732;2023-02-02T14:00:19;7.60;;;1.33;;
59922;SDS011;45778;51.142;3.732;2023-02-02T14:05:26;3.40;;;1.50;;
59922;SDS011;45778;51.142;3.732;2023-02-02T14:08:00;5.53;;;2.70;;
59922;SDS011;45778;51.142;3.732;2023-02-02T14:10:39;5.70;;;1.98;;
59922;SDS011;45778;51.142;3.732;2023-02-02T14:15:57;7.10;;;1.88;;
59922;SDS011;45778;51.142;3.732;2023-02-02T14:23:55;5.43;;;2.00;;
59922;SDS011;45778;51.142;3.732;2023-02-02T14:31:56;10.50;;;2.22;;
59922;SDS011;45778;51.142;3.732;2023-02-02T14:39:49;4.78;;;1.42;;
59922;SDS011;45778;51.142;3.732;2023-02-02T14:45:46;4.47;;;1.17;;
59922;SDS011;45778;51.142;3.732;2023-02-02T14:50:49;7.38;;;1.63;;
59922;SDS011;45778;51.142;3.732;2023-02-02T14:58:44;3.83;;;1.45;;
59922;SDS011;45778;51.142;3.732;2023-02-02T15:04:23;2.45;;;1.27;;
59922;SDS011;45778;51.142;3.732;2023-02-02T15:06:54;3.42;;;1.48;;
59922;SDS011;45778;51.142;3.732;2023-02-02T15:09:41;6.68;;;1.45;;
59922;SDS011;45778;51.142;3.732;2023-02-02T15:22:53;4.95;;;1.65;;
59922;SDS011;45778;51.142;3.732;2023-02-02T15:25:47;4.97;;;1.50;;
59922;SDS011;45778;51.142;3.732;2023-02-02T15:30:58;7.22;;;1.73;;
59922;SDS011;45778;51.142;3.732;2023-02-02T15:33:34;9.05;;;1.77;;
59922;SDS011;45778;51.142;3.732;2023-02-02T15:36:04;1.80;;;1.48;;
59922;SDS011;45778;51.142;3.732;2023-02-02T15:38:37;4.93;;;1.70;;
59922;SDS011;45778;51.142;3.732;2023-02-02T15:41:06;5.75;;;2.17;;
59922;SDS011;45778;51.142;3.732;2023-02-02T15:43:48;5.28;;;1.80;;
59922;SDS011;45778;51.142;3.732;2023-02-02T15:46:24;7.95;;;1.58;;
59922;SDS011;45778;51.142;3.732;2023-02-02T15:49:17;3.95;;;1.40;;
59922;SDS011;45778;51.142;3.732;2023-02-02T15:51:53;5.35;;;1.48;;
59922;SDS011;45778;51.142;3.732;2023-02-02T15:57:00;6.38;;;1.30;;
59922;SDS011;45778;51.142;3.732;2023-02-02T15:59:28;3.80;;;1.77;;
59922;SDS011;45778;51.142;3.732;2023-02-02T16:04:35;6.38;;;1.75;;
59922;SDS011;45778;51.142;3.732;2023-02-02T16:07:45;4.63;;;2.58;;
59922;SDS011;45778;51.142;3.732;2023-02-02T16:09:54;3.45;;;1.20;;
59922;SDS011;45778;51.142;3.732;2023-02-02T16:12:21;6.13;;;1.77;;
59922;SDS011;45778;51.142;3.732;2023-02-02T16:14:51;9.50;;;1.73;;
59922;SDS011;45778;51.142;3.732;2023-02-02T16:19:46;7.75;;;2.53;;
59922;SDS011;45778;51.142;3.732;2023-02-02T16:22:19;5.82;;;2.00;;
59922;SDS011;45778;51.142;3.732;2023-02-02T16:24:52;6.28;;;2.30;;
59922;SDS011;45778;51.142;3.732;2023-02-02T16:27:22;6.50;;;1.70;;
59922;SDS011;45778;51.142;3.732;2023-02-02T16:29:50;6.25;;;2.20;;
59922;SDS011;45778;51.142;3.732;2023-02-02T16:34:53;5.35;;;2.08;;
59922;SDS011;45778;51.142;3.732;2023-02-02T16:37:21;5.85;;;2.20;;
59922;SDS011;45778;51.142;3.732;2023-02-02T16:39:56;6.38;;;2.13;;
59922;SDS011;45778;51.142;3.732;2023-02-02T16:45:54;5.80;;;1.85;;
59922;SDS011;45778;51.142;3.732;2023-02-02T16:51:02;6.85;;;2.60;;
59922;SDS011;45778;51.142;3.732;2023-02-02T16:53:50;4.15;;;2.15;;
59922;SDS011;45778;51.142;3.732;2023-02-02T16:56:38;9.20;;;2.80;;
59922;SDS011;45778;51.142;3.732;2023-02-02T16:59:14;5.38;;;2.42;;
59922;SDS011;45778;51.142;3.732;2023-02-02T17:01:52;6.05;;;1.83;;
59922;SDS011;45778;51.142;3.732;2023-02-02T17:06:47;5.25;;;2.40;;
59922;SDS011;45778;51.142;3.732;2023-02-02T17:09:25;6.85;;;2.65;;
59922;SDS011;45778;51.142;3.732;2023-02-02T17:11:58;6.07;;;2.25;;
59922;SDS011;45778;51.142;3.732;2023-02-02T17:14:28;4.75;;;2.15;;
59922;SDS011;45778;51.142;3.732;2023-02-02T17:16:57;5.30;;;2.85;;
59922;SDS011;45778;51.142;3.732;2023-02-02T17:19:23;6.90;;;2.30;;
59922;SDS011;45778;51.142;3.732;2023-02-02T17:21:52;8.45;;;2.78;;
59922;SDS011;45778;51.142;3.732;2023-02-02T17:24:18;7.38;;;2.45;;
59922;SDS011;45778;51.142;3.732;2023-02-02T17:26:44;7.95;;;2.50;;
59922;SDS011;45778;51.142;3.732;2023-02-02T17:29:12;7.68;;;2.90;;
59922;SDS011;45778;51.142;3.732;2023-02-02T17:31:41;10.65;;;2.42;;
59922;SDS011;45778;51.142;3.732;2023-02-02T17:34:11;12.35;;;2.67;;
59922;SDS011;45778;51.142;3.732;2023-02-02T17:36:40;7.25;;;2.40;;
59922;SDS011;45778;51.142;3.732;2023-02-02T17:39:07;6.65;;;2.72;;
59922;SDS011;45778;51.142;3.732;2023-02-02T17:41:33;7.07;;;2.67;;
59922;SDS011;45778;51.142;3.732;2023-02-02T17:43:59;6.65;;;2.60;;
59922;SDS011;45778;51.142;3.732;2023-02-02T17:46:25;7.55;;;2.60;;
59922;SDS011;45778;51.142;3.732;2023-02-02T17:48:54;8.07;;;2.58;;
59922;SDS011;45778;51.142;3.732;2023-02-02T17:51:21;9.45;;;3.05;;
59922;SDS011;45778;51.142;3.732;2023-02-02T17:53:46;7.32;;;2.40;;
59922;SDS011;45778;51.142;3.732;2023-02-02T17:56:12;8.32;;;2.60;;
59922;SDS011;45778;51.142;3.732;2023-02-02T17:58:38;6.38;;;2.40;;
59922;SDS011;45778;51.142;3.732;2023-02-02T18:01:04;4.95;;;2.28;;
59922;SDS011;45778;51.142;3.732;2023-02-02T18:03:32;5.85;;;2.22;;
59922;SDS011;45778;51.142;3.732;2023-02-02T18:05:59;10.88;;;3.60;;
59922;SDS011;45778;51.142;3.732;2023-02-02T18:08:29;9.95;;;2.20;;
59922;SDS011;45778;51.142;3.732;2023-02-02T18:10:56;10.02;;;2.90;;
59922;SDS011;45778;51.142;3.732;2023-02-02T18:13:23;12.63;;;2.88;;
59922;SDS011;45778;51.142;3.732;2023-02-02T18:15:50;13.35;;;2.92;;
59922;SDS011;45778;51.142;3.732;2023-02-02T18:18:17;11.98;;;3.25;;